createdAt,value
2022-09-04T00:01:19.030Z,95.00
2022-09-04T00:04:24.187Z,95.10
2022-09-04T00:07:20.352Z,95.40
2022-09-04T00:10:18.072Z,95.10
2022-09-04T00:13:21.263Z,95.20
2022-09-04T00:16:29.070Z,95.20
2022-09-04T00:19:37.839Z,95.20
2022-09-04T00:22:37.063Z,95.10
2022-09-04T00:26:08.073Z,95.10
2022-09-04T00:29:01.015Z,95.20
2022-09-04T00:32:08.134Z,95.30
2022-09-04T00:35:31.416Z,95.50
2022-09-04T00:38:54.088Z,95.70
2022-09-04T00:42:00.061Z,95.90
2022-09-04T00:45:24.097Z,96.10
2022-09-04T00:48:21.075Z,96.40
2022-09-04T00:51:31.110Z,96.50
2022-09-04T00:54:40.087Z,96.70
2022-09-04T00:57:57.993Z,96.80
2022-09-04T01:00:54.138Z,97.20
2022-09-04T01:04:29.159Z,96.90
2022-09-04T01:07:56.397Z,97.00
2022-09-04T01:11:32.232Z,97.10
2022-09-04T01:14:56.045Z,97.20
2022-09-04T01:18:27.131Z,97.40
2022-09-04T01:21:28.140Z,97.50
2022-09-04T01:24:51.136Z,97.60
2022-09-04T01:27:54.635Z,97.70
2022-09-04T01:31:15.159Z,97.80
2022-09-04T01:34:29.908Z,97.90
2022-09-04T01:38:07.151Z,98.00
2022-09-04T01:41:21.157Z,98.20
2022-09-04T01:44:18.207Z,98.40
2022-09-04T01:47:26.179Z,98.60
2022-09-04T01:50:26.466Z,98.80
2022-09-04T01:53:33.195Z,99.10
2022-09-04T01:56:29.141Z,99.20
2022-09-04T01:59:39.174Z,99.40
2022-09-04T02:02:32.392Z,99.60
2022-09-04T02:06:03.204Z,99.80
2022-09-04T02:09:18.132Z,99.90
2022-09-04T02:12:32.197Z,99.90
2022-09-04T02:15:38.182Z,99.90
2022-09-04T02:18:56.252Z,99.90
2022-09-04T02:22:14.712Z,99.90
2022-09-04T02:25:16.273Z,99.90
2022-09-04T02:28:06.463Z,99.90
2022-09-04T02:31:19.284Z,99.90
2022-09-04T02:34:19.274Z,99.90
2022-09-04T02:37:41.301Z,99.90
2022-09-04T02:40:56.283Z,99.90
2022-09-04T02:43:52.331Z,99.90
2022-09-04T02:46:49.306Z,99.90
2022-09-04T02:49:56.787Z,99.90
2022-09-04T02:53:03.277Z,99.90
2022-09-04T02:56:17.018Z,99.90
2022-09-04T02:59:29.262Z,99.90
2022-09-04T03:02:27.706Z,99.90
2022-09-04T03:05:40.290Z,99.90
2022-09-04T03:08:43.295Z,99.90
2022-09-04T03:11:42.374Z,99.90
2022-09-04T03:14:46.353Z,99.90
2022-09-04T03:17:51.288Z,99.90
2022-09-04T03:21:03.305Z,99.90
2022-09-04T03:24:01.174Z,99.90
2022-09-04T03:27:03.392Z,99.90
2022-09-04T03:30:07.799Z,99.90
2022-09-04T03:33:23.356Z,99.90
2022-09-04T03:36:20.662Z,99.90
2022-09-04T03:40:00.703Z,99.90
2022-09-04T03:43:30.370Z,99.90
2022-09-04T03:46:37.440Z,99.90
2022-09-04T03:49:38.679Z,99.90
2022-09-04T03:52:47.381Z,99.90
2022-09-04T03:55:37.371Z,99.90
2022-09-04T03:59:00.388Z,99.90
2022-09-04T04:01:53.837Z,99.90
2022-09-04T04:05:19.415Z,99.90
2022-09-04T04:08:28.166Z,99.90
2022-09-04T04:11:43.350Z,99.90
2022-09-04T04:15:05.190Z,99.90
2022-09-04T04:18:04.389Z,99.90
2022-09-04T04:21:17.394Z,99.90
2022-09-04T04:24:35.450Z,99.90
2022-09-04T04:27:54.082Z,99.90
2022-09-04T04:30:59.450Z,99.90
2022-09-04T04:34:09.439Z,99.90
2022-09-04T04:37:29.460Z,99.90
2022-09-04T04:41:00.316Z,99.90
2022-09-04T04:44:17.544Z,99.90
2022-09-04T04:47:20.950Z,99.90
2022-09-04T04:50:28.440Z,99.90
2022-09-04T04:53:35.458Z,99.90
2022-09-04T04:56:53.468Z,99.90
2022-09-04T04:59:45.974Z,99.90
2022-09-04T05:02:58.544Z,99.90
2022-09-04T05:06:01.383Z,99.90
2022-09-04T05:09:04.467Z,99.90
2022-09-04T05:12:10.525Z,99.90
2022-09-04T05:15:20.474Z,99.90
2022-09-04T05:18:42.524Z,99.90
2022-09-04T05:21:49.503Z,99.90
2022-09-04T05:24:55.769Z,99.90
2022-09-04T05:28:02.867Z,99.90
2022-09-04T05:31:28.581Z,99.90
2022-09-04T05:34:37.508Z,99.90
2022-09-04T05:38:01.558Z,99.90
2022-09-04T05:41:06.504Z,99.90
2022-09-04T05:44:13.539Z,99.90
2022-09-04T05:47:38.141Z,99.90
2022-09-04T05:51:36.578Z,99.90
2022-09-04T05:55:17.534Z,99.90
2022-09-04T05:58:40.631Z,99.90
2022-09-04T06:02:17.724Z,99.90
2022-09-04T06:05:23.025Z,99.90
2022-09-04T06:08:30.770Z,99.90
2022-09-04T06:11:50.786Z,99.90
2022-09-04T06:15:25.636Z,99.90
2022-09-04T06:18:27.056Z,99.90
2022-09-04T06:21:49.589Z,99.90
2022-09-04T06:24:52.944Z,99.90
2022-09-04T06:28:13.600Z,99.90
2022-09-04T06:31:25.752Z,99.90
2022-09-04T06:34:31.094Z,99.90
2022-09-04T06:37:36.665Z,99.90
2022-09-04T06:40:40.949Z,99.90
2022-09-04T06:43:54.643Z,99.90
2022-09-04T06:47:14.665Z,99.90
2022-09-04T06:50:23.755Z,99.90
2022-09-04T06:53:18.286Z,99.90
2022-09-04T06:56:33.696Z,99.90
2022-09-04T06:59:53.647Z,99.90
2022-09-04T07:02:59.672Z,99.90
2022-09-04T07:05:59.645Z,99.90
2022-09-04T07:09:14.674Z,99.90
2022-09-04T07:12:20.667Z,99.90
2022-09-04T07:15:49.793Z,99.90
2022-09-04T07:19:06.699Z,99.90
2022-09-04T07:22:44.704Z,99.90
2022-09-04T07:25:55.766Z,99.90
2022-09-04T07:29:25.938Z,99.90
2022-09-04T07:32:32.159Z,99.90
2022-09-04T07:35:51.715Z,99.90
2022-09-04T07:38:54.842Z,99.90
2022-09-04T07:42:49.731Z,99.90
2022-09-04T07:46:08.759Z,99.90
2022-09-04T07:49:19.127Z,99.90
2022-09-04T07:52:36.731Z,99.90
2022-09-04T07:55:46.898Z,99.90
2022-09-04T07:59:09.808Z,99.90
2022-09-04T08:02:31.770Z,99.90
2022-09-04T08:05:37.773Z,99.90
2022-09-04T08:09:11.776Z,99.90
2022-09-04T08:12:27.756Z,99.90
2022-09-04T08:16:00.076Z,99.90
2022-09-04T08:19:07.786Z,99.90
2022-09-04T08:21:56.949Z,99.90
2022-09-04T08:24:53.832Z,99.90
2022-09-04T08:28:02.928Z,99.90
2022-09-04T08:31:24.837Z,99.90
2022-09-04T08:34:52.793Z,99.90
2022-09-04T08:38:06.787Z,99.90
2022-09-04T08:41:24.820Z,99.90
2022-09-04T08:44:36.470Z,99.90
2022-09-04T08:47:59.832Z,99.90
2022-09-04T08:51:03.856Z,99.90
2022-09-04T08:54:12.130Z,99.90
2022-09-04T08:57:33.844Z,99.90
2022-09-04T09:00:22.888Z,99.90
2022-09-04T09:03:49.832Z,99.90
2022-09-04T09:07:14.092Z,99.90
2022-09-04T09:10:34.832Z,99.90
2022-09-04T09:13:46.864Z,99.90
2022-09-04T09:16:42.527Z,99.90
2022-09-04T09:20:11.921Z,99.90
2022-09-04T09:23:18.131Z,99.90
2022-09-04T09:26:39.862Z,99.90
2022-09-04T09:29:46.720Z,99.90
2022-09-04T09:33:44.933Z,99.90
2022-09-04T09:36:44.887Z,99.90
2022-09-04T09:40:01.284Z,99.90
2022-09-04T09:43:16.933Z,99.90
2022-09-04T09:46:31.921Z,99.90
2022-09-04T09:49:43.512Z,99.90
2022-09-04T09:53:22.963Z,99.90
2022-09-04T09:56:28.811Z,99.90
2022-09-04T09:59:48.941Z,99.90
2022-09-04T10:03:14.036Z,99.90
2022-09-04T10:06:17.939Z,99.90
2022-09-04T10:09:26.934Z,99.90
2022-09-04T10:12:42.015Z,99.90
2022-09-04T10:15:54.969Z,99.90
2022-09-04T10:19:38.978Z,99.90
2022-09-04T10:22:44.502Z,99.90
2022-09-04T10:26:07.975Z,99.90
2022-09-04T10:29:34.009Z,99.90
2022-09-04T10:33:10.779Z,99.90
2022-09-04T10:36:27.000Z,99.90
2022-09-04T10:40:11.059Z,99.90
2022-09-04T10:43:26.152Z,99.90
2022-09-04T10:46:36.010Z,99.90
2022-09-04T10:49:48.240Z,99.90
2022-09-04T10:53:06.197Z,99.90
2022-09-04T10:56:13.071Z,99.90
2022-09-04T10:59:30.046Z,99.70
2022-09-04T11:02:57.354Z,99.20
2022-09-04T11:05:57.058Z,98.80
2022-09-04T11:09:18.563Z,98.60
2022-09-04T11:13:03.057Z,97.30
2022-09-04T11:16:07.139Z,97.30
2022-09-04T11:19:28.157Z,97.40
2022-09-04T11:22:42.112Z,97.20
2022-09-04T11:26:25.183Z,96.90
2022-09-04T11:29:22.529Z,96.40
2022-09-04T11:32:47.167Z,95.70
2022-09-04T11:35:55.362Z,95.80
2022-09-04T11:39:26.363Z,95.10
2022-09-04T11:42:50.095Z,94.90
2022-09-04T11:46:02.230Z,94.80
2022-09-04T11:49:09.843Z,94.50
2022-09-04T11:52:19.125Z,94.60
2022-09-04T11:55:22.474Z,94.20
2022-09-04T11:58:57.112Z,94.30
2022-09-04T12:02:16.147Z,95.10
2022-09-04T12:05:31.128Z,95.40
2022-09-04T12:08:50.408Z,95.50
2022-09-04T12:12:09.134Z,95.70
2022-09-04T12:15:25.317Z,95.70
2022-09-04T12:18:44.660Z,95.40
2022-09-04T12:22:09.167Z,95.50
2022-09-04T12:25:33.901Z,95.40
2022-09-04T12:28:58.174Z,95.50
2022-09-04T12:31:56.901Z,95.60
2022-09-04T12:35:20.187Z,95.00
2022-09-04T12:39:02.181Z,93.50
2022-09-04T12:42:24.238Z,93.70
2022-09-04T12:45:31.259Z,93.60
2022-09-04T12:48:58.004Z,93.90
2022-09-04T12:52:06.222Z,93.70
2022-09-04T12:55:26.210Z,93.50
2022-09-04T12:58:43.211Z,92.60
2022-09-04T13:01:57.123Z,92.40
2022-09-04T13:05:06.234Z,92.20
2022-09-04T13:08:09.988Z,92.40
2022-09-04T13:11:20.225Z,92.60
2022-09-04T13:14:16.404Z,92.50
2022-09-04T13:17:31.272Z,92.00
2022-09-04T13:20:47.267Z,91.90
2022-09-04T13:23:46.774Z,91.40
2022-09-04T13:26:53.279Z,91.90
2022-09-04T13:30:05.670Z,92.40
2022-09-04T13:33:18.417Z,91.70
2022-09-04T13:36:31.296Z,91.40
2022-09-04T13:40:07.444Z,91.60
2022-09-04T13:43:29.344Z,91.40
2022-09-04T13:46:24.018Z,90.90
2022-09-04T13:49:29.301Z,90.70
2022-09-04T13:52:37.106Z,89.40
2022-09-04T13:55:43.370Z,90.00
2022-09-04T13:58:51.416Z,90.10
2022-09-04T14:01:46.331Z,89.80
2022-09-04T14:04:52.369Z,90.00
2022-09-04T14:07:50.360Z,90.80
2022-09-04T14:11:05.126Z,90.50
2022-09-04T14:14:20.378Z,90.30
2022-09-04T14:17:15.395Z,90.40
2022-09-04T14:20:12.358Z,89.20
2022-09-04T14:23:38.328Z,85.90
2022-09-04T14:27:00.397Z,84.60
2022-09-04T14:30:24.401Z,84.70
2022-09-04T14:33:35.484Z,84.90
2022-09-04T14:37:02.426Z,84.90
2022-09-04T14:40:16.351Z,84.60
2022-09-04T14:43:17.085Z,84.70
2022-09-04T14:46:28.432Z,82.00
2022-09-04T14:49:21.410Z,82.30
2022-09-04T14:52:26.448Z,81.70
2022-09-04T14:55:18.078Z,80.60
2022-09-04T14:58:32.409Z,80.80
2022-09-04T15:01:31.415Z,81.50
2022-09-04T15:04:34.211Z,80.90
2022-09-04T15:07:50.433Z,81.30
2022-09-04T15:10:56.409Z,81.30
2022-09-04T15:13:54.780Z,80.90
2022-09-04T15:16:56.435Z,80.30
2022-09-04T15:19:56.633Z,79.10
2022-09-04T15:23:07.464Z,79.10
2022-09-04T15:26:18.441Z,78.40
2022-09-04T15:29:20.575Z,78.10
2022-09-04T15:32:15.476Z,77.80
2022-09-04T15:35:27.537Z,76.80
2022-09-04T15:38:32.500Z,74.60
2022-09-04T15:41:51.530Z,77.10
2022-09-04T15:44:53.493Z,77.50
2022-09-04T15:48:08.461Z,77.50
2022-09-04T15:51:15.313Z,77.60
2022-09-04T15:54:27.504Z,77.80
2022-09-04T15:57:44.534Z,79.30
2022-09-04T16:00:44.504Z,79.80
2022-09-04T16:03:54.529Z,79.30
2022-09-04T16:07:27.485Z,78.80
2022-09-04T16:10:29.441Z,78.70
2022-09-04T16:13:32.543Z,79.60
2022-09-04T16:16:25.064Z,80.70
2022-09-04T16:19:59.565Z,80.60
2022-09-04T16:22:59.525Z,80.40
2022-09-04T16:25:50.301Z,79.70
2022-09-04T16:28:53.572Z,79.70
2022-09-04T16:31:47.535Z,79.60
2022-09-04T16:34:50.590Z,78.20
2022-09-04T16:37:49.629Z,77.00
2022-09-04T16:40:52.568Z,75.20
2022-09-04T16:43:46.610Z,72.60
2022-09-04T16:46:48.218Z,69.90
2022-09-04T16:49:53.591Z,69.70
2022-09-04T16:52:40.693Z,69.80
2022-09-04T16:55:45.604Z,69.60
2022-09-04T16:58:40.114Z,69.00
2022-09-04T17:01:58.647Z,67.60
2022-09-04T17:04:59.221Z,66.70
2022-09-04T17:08:09.641Z,66.60
2022-09-04T17:11:16.644Z,67.50
2022-09-04T17:14:30.525Z,66.80
2022-09-04T17:17:30.641Z,66.00
2022-09-04T17:21:26.144Z,65.60
2022-09-04T17:29:09.740Z,66.10
2022-09-04T17:29:14.606Z,66.20
2022-09-04T17:30:52.674Z,66.60
2022-09-04T17:39:52.896Z,68.20
2022-09-04T17:40:49.728Z,68.30
2022-09-04T17:41:33.271Z,68.90
2022-09-04T17:44:09.243Z,69.90
2022-09-04T17:47:13.022Z,70.40
2022-09-04T17:50:01.535Z,68.40
2022-09-04T17:53:33.760Z,68.70
2022-09-04T17:56:44.656Z,68.20
2022-09-04T17:59:47.347Z,69.00
2022-09-04T18:02:51.713Z,72.20
2022-09-04T18:05:54.081Z,74.20
2022-09-04T18:08:55.676Z,75.70
2022-09-04T18:12:00.007Z,76.70
2022-09-04T18:15:34.001Z,77.60
2022-09-04T18:18:58.720Z,78.80
2022-09-04T18:22:26.769Z,80.30
2022-09-04T18:25:39.774Z,80.40
2022-09-04T18:29:26.393Z,81.40
2022-09-04T18:37:13.274Z,83.80
2022-09-04T18:37:22.449Z,84.30
2022-09-04T18:39:37.930Z,85.50
2022-09-04T18:50:21.585Z,85.80
2022-09-04T18:50:33.448Z,87.90
2022-09-04T18:50:43.936Z,86.70
2022-09-04T18:52:55.494Z,88.60
2022-09-04T18:55:58.746Z,88.20
2022-09-04T18:58:57.784Z,88.30
2022-09-04T19:02:04.333Z,88.90
2022-09-04T19:04:59.817Z,89.70
2022-09-04T19:07:54.887Z,90.00
2022-09-04T19:11:01.818Z,90.20
2022-09-04T19:14:15.498Z,90.40
2022-09-04T19:17:35.883Z,90.60
2022-09-04T19:20:38.828Z,90.50
2022-09-04T19:23:36.225Z,91.00
2022-09-04T19:26:42.814Z,91.50
2022-09-04T19:30:18.444Z,91.70
2022-09-04T19:33:31.766Z,91.90
2022-09-04T19:36:39.860Z,92.10
2022-09-04T19:45:56.029Z,92.40
2022-09-04T19:46:08.504Z,92.70
2022-09-04T19:46:30.474Z,92.90
2022-09-04T19:53:17.527Z,93.10
2022-09-04T19:53:31.575Z,93.30
2022-09-04T19:56:20.418Z,93.50
2022-09-04T19:59:45.942Z,93.50
2022-09-04T20:02:51.555Z,93.50
2022-09-04T20:05:40.829Z,93.80
2022-09-04T20:08:43.207Z,93.90
2022-09-04T20:11:51.892Z,93.80
2022-09-04T20:15:22.245Z,93.90
2022-09-04T20:18:28.237Z,93.90
2022-09-04T20:21:26.888Z,93.90
2022-09-04T20:24:18.162Z,94.00
2022-09-04T20:27:13.953Z,94.10
2022-09-04T20:30:12.093Z,94.20
2022-09-04T20:33:40.909Z,94.20
2022-09-04T20:36:43.012Z,94.40
2022-09-04T20:39:54.078Z,94.60
2022-09-04T20:42:56.837Z,94.70
2022-09-04T20:51:41.864Z,94.70
2022-09-04T20:52:58.596Z,95.00
2022-09-04T20:53:23.817Z,95.10
2022-09-04T20:57:37.384Z,95.20
2022-09-04T21:03:18.414Z,95.10
2022-09-04T21:03:58.244Z,95.30
2022-09-04T21:07:05.005Z,95.40
2022-09-04T21:10:31.202Z,95.40
2022-09-04T21:13:57.014Z,95.60
2022-09-04T21:17:34.094Z,95.80
2022-09-04T21:20:59.366Z,96.00
2022-09-04T21:24:29.045Z,96.20
2022-09-04T21:27:29.846Z,96.30
2022-09-04T21:30:53.111Z,96.60
2022-09-04T21:34:09.030Z,96.90
2022-09-04T21:37:28.095Z,97.00
2022-09-04T21:40:54.090Z,96.90
2022-09-04T21:44:09.038Z,96.90
2022-09-04T21:47:16.953Z,96.60
2022-09-04T21:50:29.130Z,96.60
2022-09-04T21:53:52.247Z,96.70
2022-09-04T22:02:28.584Z,96.90
2022-09-04T22:02:35.290Z,96.80
2022-09-04T22:03:21.987Z,96.90
2022-09-04T22:06:49.488Z,96.90
2022-09-04T22:13:30.993Z,96.90
2022-09-04T22:13:49.308Z,96.70
2022-09-04T22:17:11.078Z,96.70
2022-09-04T22:20:43.101Z,96.60
2022-09-04T22:24:00.147Z,96.40
2022-09-04T22:26:54.100Z,96.50
2022-09-04T22:30:13.260Z,96.50
2022-09-04T22:33:19.006Z,96.60
2022-09-04T22:36:59.168Z,97.00
2022-09-04T22:39:58.199Z,97.00
2022-09-04T22:43:11.583Z,97.00
2022-09-04T22:46:06.183Z,97.00
2022-09-04T22:49:12.991Z,97.00
2022-09-04T22:52:22.137Z,97.00
2022-09-04T22:56:23.397Z,97.00
2022-09-04T22:59:27.155Z,96.90
2022-09-04T23:07:43.752Z,96.90
2022-09-04T23:13:53.396Z,97.00
2022-09-04T23:14:00.194Z,97.10
2022-09-04T23:17:02.162Z,97.10
2022-09-04T23:26:35.720Z,97.20
2022-09-04T23:26:53.128Z,97.20
2022-09-04T23:27:12.482Z,97.20
2022-09-04T23:30:30.169Z,97.20
2022-09-04T23:33:37.987Z,97.30
2022-09-04T23:36:56.256Z,97.30
2022-09-04T23:40:34.258Z,97.30
2022-09-04T23:43:45.377Z,97.50
2022-09-04T23:46:47.293Z,97.40
2022-09-04T23:49:59.225Z,97.50
2022-09-04T23:52:52.381Z,97.60
2022-09-04T23:56:01.219Z,97.60
2022-09-04T23:59:38.238Z,97.60
